createdAt,value
2023-11-16T00:00:34.288Z,0.10
2023-11-16T00:03:07.103Z,0.10
2023-11-16T00:05:37.390Z,0.10
2023-11-16T00:08:08.726Z,0.00
2023-11-16T00:10:38.567Z,0.00
2023-11-16T00:13:06.665Z,0.10
2023-11-16T00:15:34.426Z,0.30
2023-11-16T00:18:05.673Z,0.00
2023-11-16T00:20:38.917Z,0.10
2023-11-16T00:23:05.780Z,0.22
2023-11-16T00:25:32.651Z,0.17
2023-11-16T00:28:00.733Z,0.20
2023-11-16T00:30:28.013Z,0.10
2023-11-16T00:35:22.462Z,0.10
2023-11-16T00:37:53.160Z,0.00
2023-11-16T00:40:20.613Z,0.10
2023-11-16T00:42:48.157Z,0.28
2023-11-16T00:45:14.966Z,0.20
2023-11-16T00:47:41.880Z,0.22
2023-11-16T00:50:09.325Z,0.03
2023-11-16T00:52:36.284Z,0.22
2023-11-16T00:55:06.066Z,0.10
2023-11-16T00:57:32.977Z,0.28
2023-11-16T00:59:59.882Z,0.00
2023-11-16T01:02:26.735Z,0.45
2023-11-16T01:04:53.467Z,0.10
2023-11-16T01:07:20.911Z,0.20
2023-11-16T01:09:47.650Z,0.28
2023-11-16T01:12:17.602Z,0.10
2023-11-16T01:14:45.840Z,0.60
2023-11-16T01:17:23.424Z,0.10
2023-11-16T01:19:51.040Z,0.30
2023-11-16T01:22:18.133Z,0.00
2023-11-16T01:27:17.440Z,0.10
2023-11-16T01:29:45.474Z,0.17
2023-11-16T01:32:15.049Z,0.10
2023-11-16T01:34:43.867Z,0.00
2023-11-16T01:37:11.809Z,0.20
2023-11-16T01:39:40.587Z,0.00
2023-11-16T01:42:09.213Z,0.20
2023-11-16T01:44:36.518Z,0.10
2023-11-16T01:47:07.336Z,0.00
2023-11-16T01:49:34.334Z,0.20
2023-11-16T01:52:01.155Z,0.05
2023-11-16T01:54:27.993Z,0.20
2023-11-16T01:56:55.124Z,0.10
2023-11-16T01:59:22.241Z,0.10
2023-11-16T02:01:49.256Z,0.08
2023-11-16T02:04:17.067Z,0.30
2023-11-16T02:06:44.528Z,0.05
2023-11-16T02:09:11.795Z,0.03
2023-11-16T02:14:05.702Z,0.22
2023-11-16T02:16:32.632Z,0.22
2023-11-16T02:19:17.354Z,0.00
2023-11-16T02:21:46.470Z,0.10
2023-11-16T02:24:13.922Z,0.15
2023-11-16T02:26:43.482Z,0.13
2023-11-16T02:29:11.092Z,0.00
2023-11-16T02:31:38.920Z,0.00
2023-11-16T02:34:07.286Z,0.10
2023-11-16T02:36:34.174Z,0.00
2023-11-16T02:39:01.768Z,0.10
2023-11-16T02:41:30.511Z,0.00
2023-11-16T02:43:57.220Z,0.03
2023-11-16T02:46:23.899Z,0.00
2023-11-16T02:48:50.550Z,0.00
2023-11-16T02:51:17.331Z,0.10
2023-11-16T02:53:44.823Z,0.13
2023-11-16T02:56:14.472Z,0.15
2023-11-16T02:58:45.135Z,0.30
2023-11-16T03:01:14.329Z,0.00
2023-11-16T03:03:41.768Z,0.10
2023-11-16T03:06:10.074Z,0.00
2023-11-16T03:08:37.055Z,0.05
2023-11-16T03:11:06.931Z,0.00
2023-11-16T03:13:33.787Z,0.30
2023-11-16T03:16:01.714Z,0.13
2023-11-16T03:18:28.436Z,0.13
2023-11-16T03:20:55.134Z,0.00
2023-11-16T03:23:21.791Z,0.00
2023-11-16T03:25:48.439Z,0.00
2023-11-16T03:28:15.169Z,0.28
2023-11-16T03:30:42.005Z,0.00
2023-11-16T03:33:13.686Z,0.00
2023-11-16T03:35:40.705Z,0.17
2023-11-16T03:38:07.400Z,0.00
2023-11-16T03:40:34.289Z,0.10
2023-11-16T03:43:00.935Z,0.05
2023-11-16T03:45:28.133Z,0.05
2023-11-16T03:50:21.436Z,0.20
2023-11-16T03:52:48.072Z,0.00
2023-11-16T03:55:14.827Z,0.30
2023-11-16T03:57:41.711Z,0.00
2023-11-16T04:00:09.675Z,0.15
2023-11-16T04:02:37.257Z,0.00
2023-11-16T04:05:06.404Z,0.10
2023-11-16T04:07:36.074Z,0.20
2023-11-16T04:10:05.550Z,0.40
2023-11-16T04:12:32.473Z,0.20
2023-11-16T04:14:59.196Z,0.17
2023-11-16T04:17:27.594Z,0.30
2023-11-16T04:19:54.567Z,0.20
2023-11-16T04:22:23.365Z,0.30
2023-11-16T04:24:53.119Z,0.00
2023-11-16T04:27:21.831Z,0.28
2023-11-16T04:29:48.917Z,0.30
2023-11-16T04:32:15.569Z,0.40
2023-11-16T04:34:43.514Z,0.30
2023-11-16T04:37:11.850Z,0.00
2023-11-16T04:39:38.641Z,0.10
2023-11-16T04:42:05.706Z,0.32
2023-11-16T04:44:35.599Z,0.38
2023-11-16T04:47:02.588Z,0.17
2023-11-16T04:49:29.378Z,0.15
2023-11-16T04:51:56.042Z,0.47
2023-11-16T04:54:22.971Z,0.10
2023-11-16T04:56:49.727Z,0.20
2023-11-16T04:59:16.389Z,0.10
2023-11-16T05:01:43.057Z,0.30
2023-11-16T05:04:10.121Z,0.10
2023-11-16T05:06:42.987Z,0.00
2023-11-16T05:09:09.871Z,0.20
2023-11-16T05:11:36.884Z,0.10
2023-11-16T05:14:05.160Z,0.10
2023-11-16T05:16:31.884Z,0.15
2023-11-16T05:18:58.583Z,0.10
2023-11-16T05:21:25.334Z,0.30
2023-11-16T05:23:52.004Z,0.10
2023-11-16T05:26:18.646Z,0.20
2023-11-16T05:28:45.339Z,0.22
2023-11-16T05:31:12.546Z,0.10
2023-11-16T05:36:07.446Z,0.30
2023-11-16T05:38:34.192Z,0.20
2023-11-16T05:41:00.945Z,0.20
2023-11-16T05:43:27.651Z,0.10
2023-11-16T05:45:54.522Z,0.20
2023-11-16T05:48:21.303Z,0.22
2023-11-16T05:50:48.110Z,0.32
2023-11-16T05:53:15.096Z,0.10
2023-11-16T05:55:41.796Z,0.10
2023-11-16T05:58:08.492Z,0.00
2023-11-16T06:00:38.563Z,0.20
2023-11-16T06:03:06.778Z,0.20
2023-11-16T06:05:35.125Z,0.30
2023-11-16T06:08:02.003Z,0.20
2023-11-16T06:10:28.922Z,0.17
2023-11-16T06:12:59.132Z,0.00
2023-11-16T06:15:32.075Z,0.10
2023-11-16T06:18:03.927Z,0.10
2023-11-16T06:20:31.168Z,0.13
2023-11-16T06:22:58.073Z,0.25
2023-11-16T06:25:24.869Z,0.00
2023-11-16T06:27:51.821Z,0.05
2023-11-16T06:30:19.682Z,0.32
2023-11-16T06:32:46.576Z,0.70
2023-11-16T06:35:13.369Z,0.30
2023-11-16T06:37:40.067Z,0.57
2023-11-16T06:40:10.242Z,0.70
2023-11-16T06:42:38.931Z,0.47
2023-11-16T06:45:07.696Z,0.25
2023-11-16T06:47:36.055Z,0.25
2023-11-16T06:50:06.360Z,0.15
2023-11-16T06:52:34.164Z,0.30
2023-11-16T06:55:01.744Z,0.20
2023-11-16T06:57:28.759Z,0.40
2023-11-16T06:59:55.573Z,0.50
2023-11-16T07:02:23.646Z,0.70
2023-11-16T07:04:50.546Z,0.30
2023-11-16T07:07:18.404Z,0.50
2023-11-16T07:09:47.484Z,0.60
2023-11-16T07:12:16.676Z,0.45
2023-11-16T07:14:51.190Z,0.60
2023-11-16T07:17:20.988Z,0.45
2023-11-16T07:19:49.134Z,0.63
2023-11-16T07:22:15.833Z,1.10
2023-11-16T07:24:45.803Z,0.45
2023-11-16T07:27:13.576Z,0.32
2023-11-16T07:29:44.442Z,0.40
2023-11-16T07:32:12.696Z,0.52
2023-11-16T07:34:40.913Z,0.63
2023-11-16T07:37:08.197Z,0.30
2023-11-16T07:39:35.702Z,0.52
2023-11-16T07:42:02.386Z,0.30
2023-11-16T07:44:29.017Z,0.20
2023-11-16T07:46:55.880Z,0.22
2023-11-16T07:49:24.310Z,0.30
2023-11-16T07:51:52.381Z,0.43
2023-11-16T07:54:19.160Z,0.63
2023-11-16T07:56:56.263Z,0.10
2023-11-16T07:59:32.087Z,0.45
2023-11-16T08:02:02.157Z,0.25
2023-11-16T08:04:31.011Z,0.30
2023-11-16T08:06:59.604Z,0.30
2023-11-16T08:09:30.674Z,0.30
2023-11-16T08:11:58.662Z,0.35
2023-11-16T08:14:26.989Z,0.28
2023-11-16T08:16:58.240Z,0.52
2023-11-16T08:19:28.478Z,0.30
2023-11-16T08:21:58.509Z,0.45
2023-11-16T08:24:27.473Z,0.43
2023-11-16T08:26:57.424Z,0.35
2023-11-16T08:29:25.122Z,0.30
2023-11-16T08:31:55.478Z,0.43
2023-11-16T08:34:25.296Z,0.30
2023-11-16T08:36:52.313Z,0.40
2023-11-16T08:39:19.539Z,0.20
2023-11-16T08:41:46.520Z,0.52
2023-11-16T08:44:13.903Z,0.20
2023-11-16T08:46:47.230Z,0.20
2023-11-16T08:49:13.984Z,0.20
2023-11-16T08:51:40.688Z,0.30
2023-11-16T08:54:10.198Z,0.13
2023-11-16T08:56:41.718Z,0.22
2023-11-16T08:59:10.546Z,0.20
2023-11-16T09:01:39.647Z,0.20
2023-11-16T09:04:07.899Z,0.30
2023-11-16T09:06:35.430Z,0.20
2023-11-16T09:09:10.514Z,0.17
2023-11-16T09:11:37.519Z,0.38
2023-11-16T09:14:05.576Z,0.25
2023-11-16T09:16:33.222Z,0.15
2023-11-16T09:19:00.989Z,0.20
2023-11-16T09:21:30.719Z,0.30
2023-11-16T09:23:57.715Z,0.30
2023-11-16T09:26:25.613Z,0.22
2023-11-16T09:29:01.396Z,0.13
2023-11-16T09:31:34.964Z,0.20
2023-11-16T09:34:02.107Z,0.28
2023-11-16T09:36:29.021Z,0.20
2023-11-16T09:38:59.164Z,0.20
2023-11-16T09:41:29.931Z,0.10
2023-11-16T09:44:03.317Z,0.20
2023-11-16T09:46:32.837Z,0.10
2023-11-16T09:49:00.700Z,0.13
2023-11-16T09:51:30.550Z,0.40
2023-11-16T09:54:02.540Z,0.10
2023-11-16T09:56:36.590Z,0.20
2023-11-16T09:59:26.623Z,0.30
2023-11-16T10:02:09.048Z,0.10
2023-11-16T10:04:36.527Z,0.30
2023-11-16T10:07:06.612Z,0.40
2023-11-16T10:09:43.224Z,0.50
2023-11-16T10:12:10.467Z,0.10
2023-11-16T10:14:53.669Z,0.30
2023-11-16T10:17:26.619Z,0.10
2023-11-16T10:19:53.641Z,0.30
2023-11-16T10:22:20.354Z,0.20
2023-11-16T10:24:51.104Z,0.20
2023-11-16T10:27:18.718Z,0.60
2023-11-16T10:29:45.428Z,0.30
2023-11-16T10:32:13.382Z,0.30
2023-11-16T10:34:41.276Z,0.30
2023-11-16T10:37:11.224Z,0.38
2023-11-16T10:39:39.094Z,0.20
2023-11-16T10:42:07.698Z,0.15
2023-11-16T10:44:35.266Z,0.22
2023-11-16T10:47:02.735Z,0.25
2023-11-16T10:49:30.495Z,0.38
2023-11-16T10:52:02.420Z,0.17
2023-11-16T10:54:33.761Z,0.20
2023-11-16T10:57:00.716Z,0.20
2023-11-16T10:59:28.814Z,0.20
2023-11-16T11:01:58.377Z,0.30
2023-11-16T11:04:27.011Z,0.17
2023-11-16T11:06:56.442Z,0.30
2023-11-16T11:09:40.249Z,0.20
2023-11-16T11:12:14.298Z,0.20
2023-11-16T11:14:48.021Z,0.45
2023-11-16T11:17:21.749Z,0.10
2023-11-16T11:19:56.229Z,0.15
2023-11-16T11:22:32.873Z,0.60
2023-11-16T11:25:03.350Z,0.20
2023-11-16T11:27:32.077Z,0.30
2023-11-16T11:30:13.041Z,0.38
2023-11-16T11:32:53.384Z,0.57
2023-11-16T11:35:27.364Z,0.20
2023-11-16T11:37:54.015Z,0.20
2023-11-16T11:40:29.720Z,0.20
2023-11-16T11:42:56.374Z,0.13
2023-11-16T11:45:23.183Z,0.30
2023-11-16T11:47:50.571Z,0.22
2023-11-16T11:50:20.603Z,0.30
2023-11-16T11:52:49.079Z,0.13
2023-11-16T11:55:15.959Z,0.20
2023-11-16T11:57:42.887Z,0.20
2023-11-16T12:00:14.304Z,0.22
2023-11-16T12:02:42.812Z,0.20
2023-11-16T12:05:18.282Z,0.20
2023-11-16T12:07:59.695Z,0.43
2023-11-16T12:10:26.481Z,0.25
2023-11-16T12:12:57.768Z,0.30
2023-11-16T12:15:25.163Z,0.20
2023-11-16T12:17:51.995Z,0.20
2023-11-16T12:22:45.499Z,0.10
2023-11-16T12:25:14.991Z,0.22
2023-11-16T12:27:44.319Z,0.50
2023-11-16T12:30:20.503Z,0.30
2023-11-16T12:32:47.428Z,2.88
2023-11-16T12:37:44.047Z,1.67
2023-11-16T12:40:21.723Z,0.40
2023-11-16T12:42:53.877Z,0.45
2023-11-16T12:45:21.858Z,0.22
2023-11-16T12:47:49.253Z,0.20
2023-11-16T12:50:17.301Z,0.13
2023-11-16T12:52:43.996Z,0.60
2023-11-16T12:55:13.856Z,0.10
2023-11-16T12:57:47.569Z,0.30
2023-11-16T13:00:18.770Z,0.70
2023-11-16T13:02:46.840Z,1.13
2023-11-16T13:05:16.457Z,0.40
2023-11-16T13:07:43.365Z,0.20
2023-11-16T13:10:11.301Z,0.45
2023-11-16T13:12:38.933Z,0.50
2023-11-16T13:15:07.633Z,0.75
2023-11-16T13:17:34.980Z,1.38
2023-11-16T13:20:01.777Z,0.60
2023-11-16T13:22:29.018Z,0.70
2023-11-16T13:24:55.684Z,0.47
2023-11-16T13:27:28.709Z,0.57
2023-11-16T13:30:04.599Z,0.50
2023-11-16T13:32:31.952Z,0.30
2023-11-16T13:34:58.682Z,0.25
2023-11-16T13:37:26.557Z,0.50
2023-11-16T13:39:55.188Z,0.35
2023-11-16T13:42:22.009Z,0.22
2023-11-16T13:44:48.691Z,0.68
2023-11-16T13:47:16.048Z,0.40
2023-11-16T13:49:43.814Z,0.35
2023-11-16T13:52:10.553Z,0.47
2023-11-16T13:54:37.255Z,0.60
2023-11-16T13:57:04.726Z,0.40
2023-11-16T13:59:31.903Z,0.35
2023-11-16T14:01:58.632Z,0.50
2023-11-16T14:04:25.368Z,0.35
2023-11-16T14:06:52.092Z,0.50
2023-11-16T14:09:21.565Z,0.50
2023-11-16T14:11:49.119Z,0.20
2023-11-16T14:14:15.766Z,0.30
2023-11-16T14:16:42.821Z,0.55
2023-11-16T14:21:36.382Z,0.55
2023-11-16T14:24:09.432Z,0.40
2023-11-16T14:26:37.943Z,0.55
2023-11-16T14:29:04.646Z,0.47
2023-11-16T14:31:31.431Z,0.20
2023-11-16T14:33:58.169Z,0.52
2023-11-16T14:36:24.963Z,0.32
2023-11-16T14:38:51.718Z,0.25
2023-11-16T14:41:18.492Z,0.40
2023-11-16T14:43:45.267Z,0.25
2023-11-16T14:46:12.097Z,0.73
2023-11-16T14:48:39.084Z,0.38
2023-11-16T14:51:06.134Z,0.50
2023-11-16T14:53:34.817Z,0.30
2023-11-16T14:56:03.512Z,0.50
2023-11-16T14:58:31.183Z,0.35
2023-11-16T15:00:59.305Z,0.30
2023-11-16T15:03:26.499Z,0.82
2023-11-16T15:08:19.849Z,0.32
2023-11-16T15:10:46.866Z,0.40
2023-11-16T15:13:14.402Z,0.40
2023-11-16T15:15:41.343Z,0.60
2023-11-16T15:18:08.082Z,0.88
2023-11-16T15:20:36.724Z,0.68
2023-11-16T15:23:03.552Z,0.60
2023-11-16T15:25:30.214Z,0.43
2023-11-16T15:27:57.157Z,0.57
2023-11-16T15:30:24.105Z,0.40
2023-11-16T15:32:54.363Z,0.60
2023-11-16T15:35:21.561Z,0.60
2023-11-16T15:37:50.074Z,0.60
2023-11-16T15:40:16.946Z,0.50
2023-11-16T15:42:43.718Z,0.63
2023-11-16T15:45:13.566Z,0.50
2023-11-16T15:47:40.431Z,0.57
2023-11-16T15:50:07.680Z,0.47
2023-11-16T15:55:01.304Z,0.70
2023-11-16T15:57:29.882Z,0.90
2023-11-16T16:00:00.370Z,0.95
2023-11-16T16:02:31.390Z,0.70
2023-11-16T16:05:01.058Z,0.88
2023-11-16T16:07:28.346Z,0.50
2023-11-16T16:09:55.226Z,0.50
2023-11-16T16:12:22.237Z,0.55
2023-11-16T16:14:48.882Z,0.60
2023-11-16T16:17:15.736Z,0.70
2023-11-16T16:19:42.712Z,0.63
2023-11-16T16:22:09.566Z,0.63
2023-11-16T16:24:36.733Z,0.63
2023-11-16T16:27:08.797Z,0.80
2023-11-16T16:29:36.630Z,1.10
2023-11-16T16:34:32.189Z,0.77
2023-11-16T16:36:58.864Z,1.00
2023-11-16T16:39:25.521Z,0.88
2023-11-16T16:41:53.358Z,1.23
2023-11-16T16:44:20.824Z,0.95
2023-11-16T16:46:48.916Z,0.70
2023-11-16T16:49:18.853Z,0.90
2023-11-16T16:51:45.974Z,0.73
2023-11-16T16:56:46.347Z,0.40
2023-11-16T16:59:15.977Z,0.50
2023-11-16T17:01:43.576Z,1.27
2023-11-16T17:04:10.788Z,0.70
2023-11-16T17:09:05.147Z,0.45
2023-11-16T17:11:31.815Z,0.80
2023-11-16T17:13:58.757Z,0.70
2023-11-16T17:16:28.347Z,0.50
2023-11-16T17:18:55.781Z,0.43
2023-11-16T17:21:22.810Z,1.25
2023-11-16T17:23:52.486Z,0.80
2023-11-16T17:26:20.950Z,2.83
2023-11-16T17:28:49.660Z,2.03
2023-11-16T17:31:18.397Z,1.30
2023-11-16T17:33:45.625Z,0.50
2023-11-16T17:36:12.583Z,0.60
2023-11-16T17:38:39.339Z,1.10
2023-11-16T17:41:06.857Z,1.48
2023-11-16T17:43:39.732Z,1.40
2023-11-16T17:46:08.281Z,1.02
2023-11-16T17:48:35.657Z,0.95
2023-11-16T17:51:03.931Z,0.68
2023-11-16T17:53:30.671Z,0.60
2023-11-16T17:55:57.950Z,0.80
2023-11-16T17:58:25.406Z,0.68
2023-11-16T18:00:52.227Z,1.13
2023-11-16T18:03:19.175Z,0.60
2023-11-16T18:05:45.923Z,0.63
2023-11-16T18:08:13.201Z,1.10
2023-11-16T18:10:45.005Z,0.68
2023-11-16T18:13:18.256Z,1.10
2023-11-16T18:15:45.487Z,1.38
2023-11-16T18:20:40.378Z,1.00
2023-11-16T18:23:09.264Z,0.90
2023-11-16T18:25:41.228Z,1.10
2023-11-16T18:28:14.053Z,1.15
2023-11-16T18:30:46.777Z,1.00
2023-11-16T18:33:15.461Z,1.10
2023-11-16T18:35:42.663Z,1.08
2023-11-16T18:40:41.156Z,1.52
2023-11-16T18:43:10.414Z,1.30
2023-11-16T18:45:37.120Z,2.13
2023-11-16T18:48:13.119Z,1.75
2023-11-16T18:50:41.491Z,1.45
2023-11-16T18:53:09.354Z,2.00
2023-11-16T18:55:37.310Z,4.18
2023-11-16T18:58:04.152Z,2.00
2023-11-16T19:00:31.263Z,1.00
2023-11-16T19:03:09.108Z,0.95
2023-11-16T19:05:35.820Z,1.23
2023-11-16T19:08:02.604Z,1.17
2023-11-16T19:10:31.848Z,1.15
2023-11-16T19:12:58.705Z,1.23
2023-11-16T19:15:26.491Z,2.00
2023-11-16T19:17:54.217Z,2.50
2023-11-16T19:20:24.710Z,1.67
2023-11-16T19:22:53.040Z,1.20
2023-11-16T19:25:22.782Z,0.98
2023-11-16T19:27:49.443Z,1.10
2023-11-16T19:30:16.619Z,0.95
2023-11-16T19:35:17.277Z,1.45
2023-11-16T19:37:44.015Z,0.95
2023-11-16T19:40:22.970Z,1.58
2023-11-16T19:42:59.775Z,1.05
2023-11-16T19:45:26.521Z,1.00
2023-11-16T19:47:53.188Z,0.90
2023-11-16T19:50:19.992Z,1.00
2023-11-16T19:52:46.648Z,0.73
2023-11-16T19:55:15.431Z,0.82
2023-11-16T19:57:42.590Z,0.90
2023-11-16T20:00:10.341Z,1.02
2023-11-16T20:02:37.350Z,1.00
2023-11-16T20:05:06.663Z,1.33
2023-11-16T20:07:33.959Z,1.45
2023-11-16T20:12:27.654Z,1.08
2023-11-16T20:14:57.696Z,1.23
2023-11-16T20:17:27.590Z,1.05
2023-11-16T20:19:55.534Z,1.10
2023-11-16T20:22:22.234Z,1.42
2023-11-16T20:24:49.147Z,0.77
2023-11-16T20:27:16.129Z,1.17
2023-11-16T20:29:43.127Z,1.38
2023-11-16T20:32:10.330Z,1.70
2023-11-16T20:37:06.476Z,1.85
2023-11-16T20:39:34.036Z,1.00
2023-11-16T20:42:00.830Z,1.30
2023-11-16T20:44:28.449Z,1.65
2023-11-16T20:46:55.877Z,1.20
2023-11-16T20:49:22.868Z,1.70
2023-11-16T20:51:49.941Z,1.98
2023-11-16T20:54:16.688Z,1.60
2023-11-16T20:56:43.375Z,2.00
2023-11-16T20:59:10.676Z,1.25
2023-11-16T21:04:05.766Z,1.63
2023-11-16T21:06:36.472Z,1.65
2023-11-16T21:09:10.619Z,0.98
2023-11-16T21:14:05.633Z,1.25
2023-11-16T21:16:32.664Z,1.77
2023-11-16T21:18:59.629Z,1.67
2023-11-16T21:21:26.940Z,1.10
2023-11-16T21:23:53.596Z,1.55
2023-11-16T21:26:20.814Z,1.45
2023-11-16T21:31:14.246Z,1.25
2023-11-16T21:33:40.958Z,1.63
2023-11-16T21:36:09.630Z,1.83
2023-11-16T21:38:36.333Z,1.20
2023-11-16T21:41:03.262Z,2.10
2023-11-16T21:43:29.927Z,1.55
2023-11-16T21:45:56.747Z,1.20
2023-11-16T21:48:23.423Z,1.27
2023-11-16T21:50:50.041Z,1.70
2023-11-16T21:53:19.857Z,2.28
2023-11-16T21:55:47.860Z,1.33
2023-11-16T21:58:14.695Z,1.75
2023-11-16T22:00:41.625Z,1.55
2023-11-16T22:03:09.065Z,1.63
2023-11-16T22:05:35.812Z,1.45
2023-11-16T22:08:02.458Z,2.60
2023-11-16T22:10:29.117Z,1.38
2023-11-16T22:12:55.871Z,1.10
2023-11-16T22:15:22.623Z,1.70
2023-11-16T22:17:50.891Z,1.60
2023-11-16T22:20:18.491Z,1.15
2023-11-16T22:22:47.425Z,1.70
2023-11-16T22:25:14.755Z,1.40
2023-11-16T22:30:12.218Z,1.40
2023-11-16T22:32:42.564Z,1.40
2023-11-16T22:35:11.752Z,1.48
2023-11-16T22:37:42.523Z,1.30
2023-11-16T22:40:11.387Z,0.98
2023-11-16T22:42:38.994Z,1.15
2023-11-16T22:45:06.715Z,1.55
2023-11-16T22:47:33.431Z,1.20
2023-11-16T22:50:00.293Z,1.25
2023-11-16T22:52:27.150Z,1.40
2023-11-16T22:54:54.140Z,1.55
2023-11-16T22:57:20.898Z,1.35
2023-11-16T22:59:47.559Z,1.23
2023-11-16T23:02:14.340Z,1.42
2023-11-16T23:04:43.348Z,1.20
2023-11-16T23:07:14.967Z,0.93
2023-11-16T23:09:43.369Z,1.08
2023-11-16T23:12:10.324Z,0.93
2023-11-16T23:14:37.543Z,1.08
2023-11-16T23:17:10.730Z,1.02
2023-11-16T23:19:40.847Z,1.60
2023-11-16T23:22:14.528Z,1.27
2023-11-16T23:24:45.774Z,1.00
2023-11-16T23:27:13.962Z,1.50
2023-11-16T23:29:41.697Z,1.45
2023-11-16T23:32:08.885Z,1.50
2023-11-16T23:34:36.593Z,1.60
2023-11-16T23:37:03.757Z,1.20
2023-11-16T23:39:30.933Z,1.05
2023-11-16T23:42:01.417Z,0.90
2023-11-16T23:44:28.269Z,0.95
2023-11-16T23:46:56.090Z,1.23
2023-11-16T23:49:23.634Z,1.20
2023-11-16T23:51:51.504Z,1.27
2023-11-16T23:54:18.229Z,1.05
2023-11-16T23:56:45.028Z,1.13
2023-11-16T23:59:13.514Z,1.15
